सभी
Kaniva Airport YKNV मौसम
There is no TAF data available at YKNV or any nearby airports.
There is no METAR data available at YKNV. Showing METAR data for YNHL (23 mi E).
Recent YNHL METAR history (no data for YKNV)
| Date | Time (AEST) | Flight Rules | Wind Dir. | Speed | Type | Height AGL (ft) | Visibility | Temp (°C) | Temp (°F) | Dew Point (°C) | Dew Point (°F) | Rel. Humid. | Pressure | Density Altitude | Remarks |
|---|---|---|---|---|---|---|---|---|---|---|---|---|---|---|---|
| 06-मई | 01:00 | n/a | 270° | 4 kt | Missing | 13° | 55° | 9° | 48° | 77% | 1023 mb | -75 ft | |||
| 06-मई | 00:00 | n/a | 280° | 5 kt | Missing | 13° | 55° | 10° | 50° | 82% | 1023 mb | -75 ft | |||
| 05-मई | 23:00 | n/a | Calm | Missing | 14° | 57° | 11° | 51° | 82% | 1023 mb | 45 ft | ||||
| 05-मई | 22:00 | n/a | Calm | Missing | 14° | 57° | 11° | 51° | 82% | 1023 mb | 45 ft | ||||
| 05-मई | 21:00 | n/a | 280° | 3 kt | Missing | 14° | 57° | 11° | 51° | 82% | 1023 mb | 45 ft | |||
| 05-मई | 20:00 | n/a | 250° | 3 kt | Missing | 14° | 57° | 10° | 50° | 77% | 1023 mb | 45 ft | |||
| 05-मई | 19:00 | n/a | Calm | Missing | 14° | 57° | 10° | 50° | 77% | 1023 mb | 45 ft | ||||
| 05-मई | 18:00 | n/a | Calm | Missing | 15° | 59° | 9° | 48° | 67% | 1022 mb | 194 ft | ||||
| 05-मई | 17:00 | n/a | 250° | 6 kt | Missing | 15° | 59° | 9° | 48° | 67% | 1022 mb | 194 ft | |||
| 05-मई | 16:00 | n/a | 260° | 8 kt | Missing | 15° | 59° | 8° | 46° | 63% | 1022 mb | 194 ft | |||
| 05-मई | 15:00 | n/a | 280° | 8 kt | Missing | 15° | 59° | 8° | 46° | 63% | 1022 mb | 194 ft | |||
| 05-मई | 14:00 | n/a | 220° | 7 kt | Missing | 15° | 59° | 8° | 46° | 63% | 1021 mb | 224 ft | |||
| 05-मई | 13:00 | n/a | 220° | 7 kt | Missing | 15° | 59° | 8° | 46° | 63% | 1022 mb | 194 ft | |||
| 05-मई | 12:00 | n/a | 200° | 9 kt | Missing | 14° | 57° | 8° | 46° | 67% | 1022 mb | 74 ft | |||
| 05-मई | 11:00 | n/a | 220° | 13 kt | Missing | 13° | 55° | 8° | 46° | 72% | 1022 mb | -46 ft | |||
| 05-मई | 10:00 | n/a | 210° | 13 kt | Missing | 13° | 55° | 9° | 48° | 77% | 1022 mb | -46 ft | |||
| 05-मई | 09:00 | n/a | 240° | 7 kt | Missing | 12° | 53° | 11° | 51° | 94% | 1022 mb | -166 ft | |||
| 05-मई | 08:00 | n/a | 250° | 7 kt | Missing | 11° | 51° | 11° | 51° | 100% | 1021 mb | -256 ft | |||
| 05-मई | 07:00 | n/a | 270° | 7 kt | Missing | 10° | 50° | 10° | 50° | 100% | 1020 mb | -347 ft | |||
| 05-मई | 06:00 | n/a | 270° | 7 kt | Missing | 10° | 50° | 9° | 48° | 93% | 1019 mb | -317 ft | |||
| 05-मई | 05:00 | n/a | 320° | 4 kt | Missing | 9° | 48° | 9° | 48° | 100% | 1019 mb | -437 ft | |||
| 05-मई | 04:00 | n/a | 330° | 5 kt | Missing | 8° | 46° | 8° | 46° | 100% | 1018 mb | -528 ft | |||
| 05-मई | 03:00 | n/a | 300° | 5 kt | Missing | 9° | 48° | 9° | 48° | 100% | 1018 mb | -408 ft | |||
| 05-मई | 02:00 | n/a | 300° | 5 kt | Missing | 9° | 48° | 9° | 48° | 100% | 1018 mb | -408 ft |
लॉगिन
| Your browser is unsupported. अपना ब्राऊजर अपग्रेड करें |
